createdAt,value
2022-10-26T00:01:22.174Z,100.00
2022-10-26T00:03:48.958Z,100.00
2022-10-26T00:06:18.595Z,100.00
2022-10-26T00:08:45.749Z,100.00
2022-10-26T00:11:13.444Z,100.00
2022-10-26T00:13:41.106Z,100.00
2022-10-26T00:16:15.170Z,100.00
2022-10-26T00:18:42.960Z,100.00
2022-10-26T00:21:10.970Z,100.00
2022-10-26T00:23:38.373Z,100.00
2022-10-26T00:26:06.204Z,100.00
2022-10-26T00:28:33.050Z,100.00
2022-10-26T00:31:05.194Z,100.00
2022-10-26T00:33:32.570Z,100.00
2022-10-26T00:36:01.515Z,100.00
2022-10-26T00:38:28.249Z,100.00
2022-10-26T00:40:54.934Z,100.00
2022-10-26T00:43:21.647Z,100.00
2022-10-26T00:45:52.148Z,100.00
2022-10-26T00:48:38.454Z,100.00
2022-10-26T00:51:13.567Z,100.00
2022-10-26T00:53:40.237Z,100.00
2022-10-26T00:56:08.302Z,100.00
2022-10-26T00:58:35.999Z,100.00
2022-10-26T01:01:02.873Z,100.00
2022-10-26T01:03:31.835Z,100.00
2022-10-26T01:05:58.847Z,100.00
2022-10-26T01:08:28.249Z,100.00
2022-10-26T01:10:57.325Z,100.00
2022-10-26T01:13:30.074Z,100.00
2022-10-26T01:15:56.693Z,100.00
2022-10-26T01:18:29.210Z,100.00
2022-10-26T01:21:09.586Z,100.00
2022-10-26T01:23:49.021Z,100.00
2022-10-26T01:26:38.439Z,100.00
2022-10-26T01:29:26.763Z,100.00
2022-10-26T01:32:04.870Z,100.00
2022-10-26T01:34:43.039Z,100.00
2022-10-26T01:37:13.861Z,100.00
2022-10-26T01:39:55.001Z,100.00
2022-10-26T01:42:23.494Z,100.00
2022-10-26T01:44:56.886Z,100.00
2022-10-26T01:47:24.936Z,100.00
2022-10-26T01:49:55.459Z,100.00
2022-10-26T01:52:22.894Z,100.00
2022-10-26T01:54:49.668Z,100.00
2022-10-26T01:57:20.424Z,100.00
2022-10-26T01:59:59.334Z,100.00
2022-10-26T02:02:55.101Z,100.00
2022-10-26T02:05:34.173Z,100.00
2022-10-26T02:08:18.858Z,100.00
2022-10-26T02:11:21.627Z,100.00
2022-10-26T02:13:57.540Z,100.00
2022-10-26T02:16:54.241Z,100.00
2022-10-26T02:19:29.833Z,100.00
2022-10-26T02:22:37.422Z,100.00
2022-10-26T02:25:11.380Z,100.00
2022-10-26T02:27:43.619Z,100.00
2022-10-26T02:30:11.462Z,100.00
2022-10-26T02:32:42.911Z,100.00
2022-10-26T02:35:10.011Z,100.00
2022-10-26T02:37:38.979Z,100.00
2022-10-26T02:40:10.776Z,100.00
2022-10-26T02:42:40.216Z,100.00
2022-10-26T02:45:11.298Z,100.00
2022-10-26T02:47:38.455Z,100.00
2022-10-26T02:50:05.423Z,100.00
2022-10-26T02:52:53.673Z,100.00
2022-10-26T02:55:29.001Z,100.00
2022-10-26T02:58:00.277Z,100.00
2022-10-26T03:00:27.118Z,100.00
2022-10-26T03:02:57.378Z,100.00
2022-10-26T03:05:29.978Z,100.00
2022-10-26T03:07:56.884Z,100.00
2022-10-26T03:10:23.530Z,100.00
2022-10-26T03:12:50.732Z,100.00
2022-10-26T03:15:18.074Z,100.00
2022-10-26T03:17:44.927Z,100.00
2022-10-26T03:20:11.803Z,100.00
2022-10-26T03:22:38.487Z,100.00
2022-10-26T03:25:05.784Z,100.00
2022-10-26T03:27:32.543Z,100.00
2022-10-26T03:29:59.213Z,100.00
2022-10-26T03:32:25.918Z,100.00
2022-10-26T03:34:52.652Z,100.00
2022-10-26T03:37:19.358Z,100.00
2022-10-26T03:39:46.128Z,100.00
2022-10-26T03:42:12.977Z,100.00
2022-10-26T03:44:39.666Z,100.00
2022-10-26T03:47:06.399Z,100.00
2022-10-26T03:49:33.078Z,100.00
2022-10-26T03:51:59.778Z,100.00
2022-10-26T03:54:26.653Z,100.00
2022-10-26T03:56:55.201Z,100.00
2022-10-26T03:59:22.509Z,100.00
2022-10-26T04:01:52.698Z,100.00
2022-10-26T04:04:22.212Z,100.00
2022-10-26T04:06:48.970Z,100.00
2022-10-26T04:09:15.608Z,100.00
2022-10-26T04:11:42.323Z,100.00
2022-10-26T04:14:09.038Z,100.00
2022-10-26T04:16:35.707Z,100.00
2022-10-26T04:19:02.468Z,100.00
2022-10-26T04:21:29.166Z,100.00
2022-10-26T04:23:55.798Z,100.00
2022-10-26T04:26:22.504Z,100.00
2022-10-26T04:28:49.236Z,100.00
2022-10-26T04:31:16.046Z,100.00
2022-10-26T04:33:42.718Z,100.00
2022-10-26T04:36:09.556Z,100.00
2022-10-26T04:38:36.443Z,100.00
2022-10-26T04:41:03.247Z,100.00
2022-10-26T04:43:29.933Z,100.00
2022-10-26T04:45:58.250Z,100.00
2022-10-26T04:50:51.894Z,100.00
2022-10-26T04:53:18.542Z,100.00
2022-10-26T04:55:45.206Z,100.00
2022-10-26T04:58:12.630Z,100.00
2022-10-26T05:00:39.394Z,100.00
2022-10-26T05:03:07.447Z,100.00
2022-10-26T05:05:36.632Z,100.00
2022-10-26T05:08:04.130Z,100.00
2022-10-26T05:10:30.944Z,100.00
2022-10-26T05:13:00.250Z,100.00
2022-10-26T05:15:28.417Z,100.00
2022-10-26T05:18:00.259Z,100.00
2022-10-26T05:20:31.317Z,100.00
2022-10-26T05:23:01.075Z,100.00
2022-10-26T05:25:29.817Z,100.00
2022-10-26T05:28:05.084Z,100.00
2022-10-26T05:30:32.258Z,100.00
2022-10-26T05:33:01.042Z,100.00
2022-10-26T05:35:27.827Z,100.00
2022-10-26T05:37:54.820Z,100.00
2022-10-26T05:40:22.160Z,100.00
2022-10-26T05:42:49.153Z,100.00
2022-10-26T05:45:18.098Z,100.00
2022-10-26T05:47:46.040Z,100.00
2022-10-26T05:50:14.107Z,100.00
2022-10-26T05:52:42.400Z,100.00
2022-10-26T05:55:10.918Z,100.00
2022-10-26T05:57:38.224Z,100.00
2022-10-26T06:00:10.593Z,100.00
2022-10-26T06:02:43.018Z,100.00
2022-10-26T06:05:13.595Z,100.00
2022-10-26T06:07:40.678Z,100.00
2022-10-26T06:10:08.016Z,100.00
2022-10-26T06:12:35.038Z,100.00
2022-10-26T06:15:01.998Z,91.02
2022-10-26T06:17:40.817Z,84.21
2022-10-26T06:20:26.168Z,72.92
2022-10-26T06:23:14.673Z,62.97
2022-10-26T06:25:53.744Z,60.08
2022-10-26T06:30:59.503Z,58.08
2022-10-26T06:33:30.942Z,56.68
2022-10-26T06:36:22.325Z,55.25
2022-10-26T06:38:54.352Z,52.12
2022-10-26T06:41:22.608Z,48.74
2022-10-26T06:43:49.716Z,46.71
2022-10-26T06:46:34.682Z,49.85
2022-10-26T06:49:10.177Z,48.62
2022-10-26T06:51:44.671Z,51.36
2022-10-26T06:54:30.076Z,46.91
2022-10-26T06:56:56.851Z,43.87
2022-10-26T06:59:33.031Z,43.41
2022-10-26T07:02:02.900Z,42.45
2022-10-26T07:04:32.391Z,43.97
2022-10-26T07:06:59.091Z,43.32
2022-10-26T07:09:25.720Z,43.40
2022-10-26T07:11:52.335Z,44.14
2022-10-26T07:14:18.972Z,40.50
2022-10-26T07:16:45.666Z,39.03
2022-10-26T07:19:12.369Z,36.71
2022-10-26T07:21:39.031Z,34.10
2022-10-26T07:24:05.978Z,35.81
2022-10-26T07:26:32.621Z,36.98
2022-10-26T07:28:59.286Z,37.13
2022-10-26T07:31:26.593Z,37.06
2022-10-26T07:33:56.410Z,37.75
2022-10-26T07:36:23.225Z,38.31
2022-10-26T07:38:53.850Z,36.99
2022-10-26T07:41:20.657Z,36.30
2022-10-26T07:43:49.166Z,33.89
2022-10-26T07:46:15.806Z,35.48
2022-10-26T07:51:09.259Z,32.47
2022-10-26T07:53:35.929Z,33.81
2022-10-26T07:56:03.011Z,31.38
2022-10-26T07:58:31.440Z,31.06
2022-10-26T08:00:58.222Z,34.75
2022-10-26T08:03:24.902Z,36.95
2022-10-26T08:05:53.935Z,37.44
2022-10-26T08:08:20.618Z,36.75
2022-10-26T08:10:48.242Z,34.72
2022-10-26T08:13:15.419Z,33.18
2022-10-26T08:15:42.120Z,33.59
2022-10-26T08:18:08.965Z,33.41
2022-10-26T08:20:35.697Z,33.63
2022-10-26T08:23:06.205Z,33.12
2022-10-26T08:25:33.493Z,32.47
2022-10-26T08:28:04.301Z,31.30
2022-10-26T08:30:32.374Z,31.43
2022-10-26T08:33:08.556Z,28.96
2022-10-26T08:35:35.532Z,27.12
2022-10-26T08:38:02.298Z,27.14
2022-10-26T08:40:33.014Z,28.21
2022-10-26T08:43:24.310Z,26.14
2022-10-26T08:45:58.324Z,26.07
2022-10-26T08:48:31.206Z,26.11
2022-10-26T08:51:06.994Z,25.19
2022-10-26T08:53:53.900Z,26.09
2022-10-26T08:56:26.469Z,26.80
2022-10-26T08:59:01.673Z,25.46
2022-10-26T09:01:32.083Z,26.93
2022-10-26T09:06:33.763Z,26.25
2022-10-26T09:09:12.539Z,26.30
2022-10-26T09:12:07.523Z,24.03
2022-10-26T09:14:54.334Z,23.95
2022-10-26T09:17:32.483Z,24.81
2022-10-26T09:20:38.165Z,24.06
2022-10-26T09:23:04.648Z,25.67
2022-10-26T09:25:39.737Z,24.15
2022-10-26T09:28:17.781Z,26.43
2022-10-26T09:30:46.277Z,25.16
2022-10-26T09:33:24.263Z,24.60
2022-10-26T09:35:52.814Z,24.76
2022-10-26T09:38:25.927Z,25.75
2022-10-26T09:41:10.825Z,24.70
2022-10-26T09:46:21.428Z,25.22
2022-10-26T09:48:56.925Z,25.13
2022-10-26T09:51:23.994Z,24.44
2022-10-26T09:53:50.675Z,22.69
2022-10-26T09:56:18.489Z,23.37
2022-10-26T09:58:54.123Z,22.67
2022-10-26T10:01:21.795Z,24.73
2022-10-26T10:04:08.709Z,24.94
2022-10-26T10:06:35.251Z,26.28
2022-10-26T10:09:11.821Z,29.12
2022-10-26T10:11:41.498Z,31.76
2022-10-26T10:14:14.989Z,31.92
2022-10-26T10:16:50.115Z,31.56
2022-10-26T10:19:43.870Z,32.82
2022-10-26T10:22:18.626Z,34.19
2022-10-26T10:24:57.305Z,35.20
2022-10-26T10:27:25.427Z,37.40
2022-10-26T10:29:59.728Z,37.95
2022-10-26T10:32:35.457Z,38.87
2022-10-26T10:35:24.505Z,40.52
2022-10-26T10:37:52.229Z,40.69
2022-10-26T10:40:24.838Z,41.34
2022-10-26T10:42:53.560Z,41.98
2022-10-26T10:45:30.161Z,43.05
2022-10-26T10:48:03.130Z,43.15
2022-10-26T10:50:32.363Z,43.22
2022-10-26T10:53:26.542Z,44.22
2022-10-26T10:56:20.738Z,44.69
2022-10-26T10:58:59.591Z,45.12
2022-10-26T11:01:32.250Z,45.52
2022-10-26T11:04:37.030Z,46.04
2022-10-26T11:07:06.744Z,46.49
2022-10-26T11:09:37.760Z,46.67
2022-10-26T11:12:15.914Z,46.81
2022-10-26T11:14:51.240Z,46.59
2022-10-26T11:17:26.241Z,47.33
2022-10-26T11:20:02.614Z,47.18
2022-10-26T11:22:37.455Z,47.57
2022-10-26T11:25:28.283Z,47.60
2022-10-26T11:28:03.010Z,47.40
2022-10-26T11:30:33.840Z,45.92
2022-10-26T11:33:12.056Z,46.29
2022-10-26T11:35:46.612Z,46.57
2022-10-26T11:38:33.231Z,45.81
2022-10-26T11:41:18.498Z,46.33
2022-10-26T11:43:51.320Z,45.64
2022-10-26T11:46:22.599Z,45.71
2022-10-26T11:49:10.618Z,43.28
2022-10-26T11:51:47.091Z,43.71
2022-10-26T11:54:28.519Z,43.80
2022-10-26T11:57:01.171Z,44.44
2022-10-26T11:59:33.320Z,44.34
2022-10-26T12:02:12.506Z,44.94
2022-10-26T12:04:40.101Z,46.17
2022-10-26T12:07:16.980Z,46.26
2022-10-26T12:09:45.301Z,46.14
2022-10-26T12:12:11.975Z,47.41
2022-10-26T12:15:16.843Z,47.23
2022-10-26T12:18:00.698Z,46.72
2022-10-26T12:21:07.139Z,47.06
2022-10-26T12:23:47.766Z,47.50
2022-10-26T12:26:24.192Z,47.39
2022-10-26T12:29:02.772Z,48.11
2022-10-26T12:31:32.633Z,47.93
2022-10-26T12:34:00.037Z,47.16
2022-10-26T12:36:49.332Z,47.41
2022-10-26T12:39:36.690Z,48.23
2022-10-26T12:42:06.261Z,48.43
2022-10-26T12:44:34.648Z,48.27
2022-10-26T12:47:01.386Z,49.47
2022-10-26T12:50:05.899Z,49.44
2022-10-26T12:52:49.761Z,49.60
2022-10-26T12:55:38.302Z,49.67
2022-10-26T12:58:42.698Z,50.44
2022-10-26T13:01:34.436Z,48.28
2022-10-26T13:04:25.984Z,48.29
2022-10-26T13:07:11.046Z,48.85
2022-10-26T13:09:37.905Z,49.24
2022-10-26T13:12:05.341Z,50.13
2022-10-26T13:14:36.978Z,50.23
2022-10-26T13:17:18.056Z,49.81
2022-10-26T13:19:49.115Z,50.97
2022-10-26T13:22:20.039Z,50.49
2022-10-26T13:24:53.836Z,51.72
2022-10-26T13:27:24.637Z,51.33
2022-10-26T13:30:03.385Z,52.02
2022-10-26T13:32:38.980Z,52.15
2022-10-26T13:35:10.981Z,51.77
2022-10-26T13:37:44.999Z,52.16
2022-10-26T13:40:18.658Z,51.89
2022-10-26T13:42:52.063Z,53.34
2022-10-26T13:45:27.495Z,52.41
2022-10-26T13:48:07.762Z,53.28
2022-10-26T13:50:41.172Z,53.25
2022-10-26T13:53:18.276Z,53.11
2022-10-26T13:55:56.436Z,53.31
2022-10-26T13:58:26.687Z,52.92
2022-10-26T14:01:11.681Z,54.25
2022-10-26T14:03:39.638Z,53.78
2022-10-26T14:06:32.739Z,54.11
2022-10-26T14:09:13.241Z,54.15
2022-10-26T14:12:00.756Z,54.61
2022-10-26T14:14:36.331Z,54.61
2022-10-26T14:17:04.059Z,54.68
2022-10-26T14:19:37.494Z,55.68
2022-10-26T14:22:05.355Z,55.60
2022-10-26T14:24:48.210Z,55.82
2022-10-26T14:27:20.703Z,55.47
2022-10-26T14:30:03.700Z,55.36
2022-10-26T14:32:36.738Z,56.14
2022-10-26T14:35:03.677Z,55.71
2022-10-26T14:37:39.450Z,55.99
2022-10-26T14:40:08.045Z,55.92
2022-10-26T14:42:41.151Z,56.64
2022-10-26T14:45:29.982Z,58.22
2022-10-26T14:48:21.898Z,57.11
2022-10-26T14:51:02.347Z,57.12
2022-10-26T14:53:41.317Z,57.02
2022-10-26T14:56:23.270Z,57.58
2022-10-26T14:58:51.323Z,58.42
2022-10-26T15:01:29.299Z,58.74
2022-10-26T15:04:04.993Z,60.26
2022-10-26T15:06:34.289Z,59.52
2022-10-26T15:09:05.115Z,58.03
2022-10-26T15:11:33.910Z,58.42
2022-10-26T15:14:01.403Z,59.66
2022-10-26T15:16:35.065Z,59.23
2022-10-26T15:19:11.442Z,58.49
2022-10-26T15:21:45.773Z,60.98
2022-10-26T15:24:21.496Z,60.39
2022-10-26T15:26:48.535Z,59.54
2022-10-26T15:30:09.151Z,59.48
2022-10-26T15:32:35.880Z,64.33
2022-10-26T15:35:11.694Z,61.67
2022-10-26T15:37:39.142Z,61.92
2022-10-26T15:40:06.819Z,65.46
2022-10-26T15:42:38.279Z,63.89
2022-10-26T15:45:17.130Z,65.23
2022-10-26T15:47:44.146Z,68.21
2022-10-26T15:50:21.988Z,66.81
2022-10-26T15:52:49.723Z,66.92
2022-10-26T15:55:17.824Z,66.63
2022-10-26T15:57:44.967Z,65.17
2022-10-26T16:00:16.983Z,74.26
2022-10-26T16:02:45.443Z,80.23
2022-10-26T16:05:16.968Z,84.04
2022-10-26T16:07:47.057Z,84.48
2022-10-26T16:10:18.612Z,83.53
2022-10-26T16:12:45.365Z,82.99
2022-10-26T16:15:20.383Z,73.27
2022-10-26T16:17:47.432Z,76.66
2022-10-26T16:20:32.242Z,84.41
2022-10-26T16:23:01.729Z,83.75
2022-10-26T16:25:28.505Z,81.59
2022-10-26T16:27:55.541Z,90.12
2022-10-26T16:30:26.993Z,90.13
2022-10-26T16:32:56.172Z,93.97
2022-10-26T16:35:22.869Z,92.00
2022-10-26T16:37:49.499Z,90.68
2022-10-26T16:40:16.270Z,89.16
2022-10-26T16:42:44.646Z,90.01
2022-10-26T16:45:15.531Z,89.65
2022-10-26T16:47:42.251Z,87.53
2022-10-26T16:50:12.314Z,88.51
2022-10-26T16:52:39.672Z,86.14
2022-10-26T16:55:08.401Z,87.04
2022-10-26T16:57:36.075Z,85.96
2022-10-26T17:00:03.938Z,88.26
2022-10-26T17:02:30.856Z,88.89
2022-10-26T17:04:59.331Z,87.04
2022-10-26T17:07:28.159Z,90.17
2022-10-26T17:09:54.815Z,92.39
2022-10-26T17:12:22.107Z,96.20
2022-10-26T17:14:48.883Z,96.63
2022-10-26T17:17:15.561Z,94.38
2022-10-26T17:19:42.257Z,93.12
2022-10-26T17:22:08.976Z,93.33
2022-10-26T17:24:36.391Z,91.68
2022-10-26T17:27:03.141Z,91.78
2022-10-26T17:29:29.943Z,89.02
2022-10-26T17:31:56.800Z,95.69
2022-10-26T17:34:23.504Z,100.00
2022-10-26T17:36:50.213Z,99.25
2022-10-26T17:39:17.133Z,100.00
2022-10-26T17:41:43.858Z,98.42
2022-10-26T17:44:10.925Z,95.91
2022-10-26T17:46:37.567Z,96.28
2022-10-26T17:49:04.475Z,99.12
2022-10-26T17:51:31.138Z,100.00
2022-10-26T17:53:59.278Z,100.00
2022-10-26T17:56:31.147Z,100.00
2022-10-26T17:59:03.667Z,98.49
2022-10-26T18:01:31.870Z,100.00
2022-10-26T18:03:59.298Z,100.00
2022-10-26T18:06:26.790Z,100.00
2022-10-26T18:08:56.047Z,100.00
2022-10-26T18:11:26.859Z,100.00
2022-10-26T18:13:56.012Z,100.00
2022-10-26T18:16:24.249Z,100.00
2022-10-26T18:19:03.080Z,100.00
2022-10-26T18:21:33.007Z,100.00
2022-10-26T18:24:00.164Z,100.00
2022-10-26T18:26:29.109Z,100.00
2022-10-26T18:28:56.848Z,100.00
2022-10-26T18:31:25.228Z,100.00
2022-10-26T18:33:57.016Z,100.00
2022-10-26T18:36:24.258Z,100.00
2022-10-26T18:38:51.481Z,100.00
2022-10-26T18:41:19.919Z,100.00
2022-10-26T18:43:51.417Z,100.00
2022-10-26T18:46:24.330Z,100.00
2022-10-26T18:48:52.492Z,100.00
2022-10-26T18:51:22.046Z,100.00
2022-10-26T18:53:49.171Z,100.00
2022-10-26T18:56:18.334Z,100.00
2022-10-26T18:58:48.122Z,100.00
2022-10-26T19:01:22.494Z,100.00
2022-10-26T19:03:57.845Z,100.00
2022-10-26T19:06:27.390Z,100.00
2022-10-26T19:08:54.588Z,100.00
2022-10-26T19:11:23.967Z,100.00
2022-10-26T19:13:52.906Z,100.00
2022-10-26T19:16:44.575Z,100.00
2022-10-26T19:19:13.606Z,100.00
2022-10-26T19:21:40.325Z,100.00
2022-10-26T19:24:11.907Z,100.00
2022-10-26T19:26:42.356Z,100.00
2022-10-26T19:29:14.546Z,100.00
2022-10-26T19:31:42.121Z,100.00
2022-10-26T19:34:11.492Z,100.00
2022-10-26T19:36:39.633Z,100.00
2022-10-26T19:39:07.571Z,100.00
2022-10-26T19:41:34.302Z,100.00
2022-10-26T19:44:01.457Z,100.00
2022-10-26T19:46:31.066Z,100.00
2022-10-26T19:49:00.259Z,100.00
2022-10-26T19:51:29.237Z,100.00
2022-10-26T19:53:59.033Z,100.00
2022-10-26T19:56:28.982Z,100.00
2022-10-26T19:58:55.928Z,100.00
2022-10-26T20:01:22.908Z,100.00
2022-10-26T20:03:49.819Z,100.00
2022-10-26T20:06:18.290Z,100.00
2022-10-26T20:08:47.539Z,100.00
2022-10-26T20:11:15.841Z,100.00
2022-10-26T20:13:44.569Z,100.00
2022-10-26T20:16:12.216Z,100.00
2022-10-26T20:18:44.012Z,100.00
2022-10-26T20:21:14.854Z,100.00
2022-10-26T20:23:42.600Z,100.00
2022-10-26T20:26:10.445Z,100.00
2022-10-26T20:28:38.584Z,100.00
2022-10-26T20:31:05.394Z,100.00
2022-10-26T20:33:32.105Z,100.00
2022-10-26T20:35:59.884Z,100.00
2022-10-26T20:38:27.427Z,100.00
2022-10-26T20:40:59.428Z,100.00
2022-10-26T20:43:27.607Z,100.00
2022-10-26T20:45:56.202Z,100.00
2022-10-26T20:48:24.070Z,100.00
2022-10-26T20:50:57.350Z,100.00
2022-10-26T20:53:34.700Z,100.00
2022-10-26T20:56:06.003Z,100.00
2022-10-26T20:58:41.888Z,100.00
2022-10-26T21:01:33.715Z,100.00
2022-10-26T21:04:02.675Z,100.00
2022-10-26T21:06:32.220Z,100.00
2022-10-26T21:08:58.879Z,100.00
2022-10-26T21:11:26.011Z,100.00
2022-10-26T21:13:54.657Z,100.00
2022-10-26T21:18:53.261Z,100.00
2022-10-26T21:21:20.037Z,100.00
2022-10-26T21:23:46.806Z,100.00
2022-10-26T21:26:13.797Z,100.00
2022-10-26T21:28:43.127Z,100.00
2022-10-26T21:31:11.934Z,100.00
2022-10-26T21:33:39.311Z,100.00
2022-10-26T21:36:08.264Z,100.00
2022-10-26T21:38:35.170Z,100.00
2022-10-26T21:41:21.529Z,100.00
2022-10-26T21:43:50.254Z,100.00
2022-10-26T21:46:20.558Z,100.00
2022-10-26T21:48:47.996Z,100.00
2022-10-26T21:51:20.414Z,100.00
2022-10-26T21:53:48.253Z,100.00
2022-10-26T21:56:20.742Z,100.00
2022-10-26T21:58:48.166Z,100.00
2022-10-26T22:01:20.516Z,100.00
2022-10-26T22:03:48.283Z,100.00
2022-10-26T22:06:17.720Z,100.00
2022-10-26T22:08:45.901Z,100.00
2022-10-26T22:11:15.869Z,100.00
2022-10-26T22:13:44.207Z,100.00
2022-10-26T22:16:17.305Z,100.00
2022-10-26T22:18:46.009Z,100.00
2022-10-26T22:21:14.325Z,100.00
2022-10-26T22:23:42.854Z,100.00
2022-10-26T22:26:18.576Z,100.00
2022-10-26T22:28:46.710Z,100.00
2022-10-26T22:31:17.051Z,100.00
2022-10-26T22:33:44.039Z,100.00
2022-10-26T22:36:13.259Z,100.00
2022-10-26T22:38:40.919Z,100.00
2022-10-26T22:41:08.798Z,100.00
2022-10-26T22:43:35.886Z,100.00
2022-10-26T22:46:05.682Z,100.00
2022-10-26T22:48:33.551Z,100.00
2022-10-26T22:51:08.824Z,100.00
2022-10-26T22:53:35.633Z,100.00
2022-10-26T22:56:04.040Z,100.00
2022-10-26T22:58:30.837Z,100.00
2022-10-26T23:01:05.550Z,100.00
2022-10-26T23:03:33.603Z,100.00
2022-10-26T23:06:01.028Z,100.00
2022-10-26T23:08:28.460Z,100.00
2022-10-26T23:11:00.215Z,100.00
2022-10-26T23:13:27.785Z,100.00
2022-10-26T23:15:55.378Z,100.00
2022-10-26T23:18:22.499Z,100.00
2022-10-26T23:20:50.611Z,100.00
2022-10-26T23:23:18.148Z,100.00
2022-10-26T23:25:44.999Z,100.00
2022-10-26T23:28:12.042Z,100.00
2022-10-26T23:30:38.788Z,100.00
2022-10-26T23:33:05.523Z,100.00
2022-10-26T23:35:32.798Z,100.00
2022-10-26T23:37:59.802Z,100.00
2022-10-26T23:40:27.649Z,100.00
2022-10-26T23:42:54.384Z,100.00
2022-10-26T23:45:21.706Z,100.00
2022-10-26T23:47:48.921Z,100.00
2022-10-26T23:50:16.094Z,100.00
2022-10-26T23:52:47.637Z,100.00
2022-10-26T23:55:15.236Z,100.00
2022-10-26T23:57:42.187Z,100.00
